createdAt,value
2023-02-14T00:01:28.494Z,102295.88
2023-02-14T00:04:30.533Z,102284.44
2023-02-14T00:07:33.026Z,102276.91
2023-02-14T00:10:35.553Z,102275.03
2023-02-14T00:13:37.799Z,102283.44
2023-02-14T00:16:39.834Z,102275.06
2023-02-14T00:19:43.408Z,102256.16
2023-02-14T00:22:45.427Z,102244.66
2023-02-14T00:25:47.387Z,102249.22
2023-02-14T00:28:49.416Z,102246.66
2023-02-14T00:31:51.999Z,102253.22
2023-02-14T00:34:54.057Z,102238.53
2023-02-14T00:37:56.136Z,102242.38
2023-02-14T00:40:58.525Z,102249.66
2023-02-14T00:44:01.049Z,102232.19
2023-02-14T00:47:03.152Z,102248.03
2023-02-14T00:50:05.539Z,102239.06
2023-02-14T00:53:07.656Z,102234.56
2023-02-14T00:56:10.504Z,102235.78
2023-02-14T00:59:12.998Z,102238.47
2023-02-14T01:02:17.075Z,102231.16
2023-02-14T01:05:19.560Z,102219.53
2023-02-14T01:08:21.689Z,102204.31
2023-02-14T01:11:25.403Z,102202.22
2023-02-14T01:14:28.335Z,102207.16
2023-02-14T01:17:30.499Z,102208.16
2023-02-14T01:20:33.258Z,102209.41
2023-02-14T01:23:35.226Z,102208.44
2023-02-14T01:26:37.371Z,102201.50
2023-02-14T01:29:39.385Z,102197.28
2023-02-14T01:32:42.529Z,102203.72
2023-02-14T01:35:44.521Z,102202.03
2023-02-14T01:38:47.313Z,102198.06
2023-02-14T01:41:50.215Z,102202.16
2023-02-14T01:45:20.000Z,102204.81
2023-02-14T01:48:23.363Z,102213.03
2023-02-14T01:51:25.484Z,102210.31
2023-02-14T01:54:31.739Z,102209.38
2023-02-14T01:57:43.829Z,102207.47
2023-02-14T02:00:59.446Z,102210.94
2023-02-14T02:04:12.900Z,102222.75
2023-02-14T02:07:19.565Z,102200.88
2023-02-14T02:10:21.998Z,102202.28
2023-02-14T02:13:25.460Z,102203.44
2023-02-14T02:16:55.764Z,102204.47
2023-02-14T02:20:31.656Z,102212.50
2023-02-14T02:23:45.373Z,102199.25
2023-02-14T02:26:47.436Z,102199.06
2023-02-14T02:30:07.904Z,102211.81
2023-02-14T02:33:12.768Z,102199.81
2023-02-14T02:36:30.081Z,102193.28
2023-02-14T02:39:51.151Z,102188.16
2023-02-14T02:43:15.490Z,102164.56
2023-02-14T02:46:48.346Z,102179.84
2023-02-14T02:50:18.011Z,102193.91
2023-02-14T02:53:35.102Z,102207.00
2023-02-14T02:56:49.932Z,102184.25
2023-02-14T02:59:57.529Z,102183.84
2023-02-14T03:03:18.128Z,102185.72
2023-02-14T03:06:20.186Z,102188.41
2023-02-14T03:09:28.011Z,102198.78
2023-02-14T03:12:39.086Z,102182.00
2023-02-14T03:15:59.048Z,102184.97
2023-02-14T03:19:10.830Z,102178.38
2023-02-14T03:22:30.224Z,102177.72
2023-02-14T03:25:43.019Z,102169.03
2023-02-14T03:28:59.014Z,102156.91
2023-02-14T03:32:23.016Z,102152.47
2023-02-14T03:35:46.705Z,102155.22
2023-02-14T03:39:08.178Z,102161.31
2023-02-14T03:42:25.526Z,102155.22
2023-02-14T03:45:40.832Z,102158.78
2023-02-14T03:48:44.515Z,102147.22
2023-02-14T03:51:50.808Z,102148.63
2023-02-14T03:54:56.674Z,102142.09
2023-02-14T03:58:12.692Z,102136.66
2023-02-14T04:01:19.224Z,102135.38
2023-02-14T04:04:25.458Z,102123.97
2023-02-14T04:07:27.570Z,102128.84
2023-02-14T04:10:29.659Z,102126.91
2023-02-14T04:13:32.186Z,102123.63
2023-02-14T04:16:54.180Z,102132.69
2023-02-14T04:19:56.949Z,102133.72
2023-02-14T04:22:59.188Z,102118.53
2023-02-14T04:26:03.799Z,102129.75
2023-02-14T04:29:05.803Z,102127.03
2023-02-14T04:32:11.038Z,102131.03
2023-02-14T04:35:13.205Z,102134.72
2023-02-14T04:38:15.455Z,102145.34
2023-02-14T04:41:17.551Z,102148.56
2023-02-14T04:44:20.521Z,102129.38
2023-02-14T04:47:22.544Z,102134.78
2023-02-14T04:50:26.066Z,102131.78
2023-02-14T04:53:27.993Z,102140.59
2023-02-14T04:56:30.129Z,102135.19
2023-02-14T04:59:32.099Z,102133.69
2023-02-14T05:02:34.128Z,102135.00
2023-02-14T05:05:36.175Z,102138.53
2023-02-14T05:08:38.243Z,102136.38
2023-02-14T05:11:40.249Z,102135.56
2023-02-14T05:14:42.296Z,102138.28
2023-02-14T05:17:44.425Z,102136.13
2023-02-14T05:20:50.062Z,102137.75
2023-02-14T05:23:52.025Z,102146.88
2023-02-14T05:26:54.071Z,102145.97
2023-02-14T05:29:56.134Z,102148.81
2023-02-14T05:32:58.343Z,102157.56
2023-02-14T05:36:03.602Z,102140.94
2023-02-14T05:39:05.727Z,102135.19
2023-02-14T05:45:10.905Z,102133.84
2023-02-14T05:48:13.487Z,102137.81
2023-02-14T05:51:15.580Z,102140.28
2023-02-14T05:54:17.614Z,102138.91
2023-02-14T05:57:19.724Z,102133.94
2023-02-14T06:00:24.043Z,102136.81
2023-02-14T06:03:26.389Z,102145.56
2023-02-14T06:06:28.448Z,102130.22
2023-02-14T06:09:30.574Z,102118.16
2023-02-14T06:12:32.998Z,102128.13
2023-02-14T06:15:36.335Z,102125.59
2023-02-14T06:18:39.224Z,102112.91
2023-02-14T06:21:41.207Z,102131.41
2023-02-14T06:24:43.268Z,102117.00
2023-02-14T06:27:45.942Z,102127.78
2023-02-14T06:30:48.845Z,102125.03
2023-02-14T06:33:52.510Z,102110.81
2023-02-14T06:36:54.621Z,102114.72
2023-02-14T06:39:56.694Z,102114.47
2023-02-14T06:42:58.715Z,102113.09
2023-02-14T06:46:01.227Z,102100.25
2023-02-14T06:49:03.274Z,102119.69
2023-02-14T06:52:05.665Z,102115.09
2023-02-14T06:55:08.047Z,102105.31
2023-02-14T06:58:10.046Z,102111.63
2023-02-14T07:01:12.085Z,102111.69
2023-02-14T07:04:15.217Z,102094.81
2023-02-14T07:07:17.212Z,102096.59
2023-02-14T07:10:19.987Z,102096.00
2023-02-14T07:13:22.214Z,102098.34
2023-02-14T07:16:24.500Z,102093.63
2023-02-14T07:19:26.557Z,102099.63
2023-02-14T07:22:30.311Z,102092.81
2023-02-14T07:25:32.623Z,102103.97
2023-02-14T07:28:34.686Z,102113.38
2023-02-14T07:31:36.932Z,102093.91
2023-02-14T07:34:39.174Z,102097.63
2023-02-14T07:37:41.296Z,102096.63
2023-02-14T07:40:43.369Z,102100.25
2023-02-14T07:43:45.297Z,102107.75
2023-02-14T07:46:47.347Z,102101.28
2023-02-14T07:49:49.366Z,102092.44
2023-02-14T07:52:51.422Z,102107.88
2023-02-14T07:55:53.797Z,102087.03
2023-02-14T07:58:55.828Z,102095.56
2023-02-14T08:01:58.245Z,102091.91
2023-02-14T08:05:00.403Z,102107.91
2023-02-14T08:08:02.606Z,102087.50
2023-02-14T08:11:04.666Z,102098.34
2023-02-14T08:14:06.773Z,102091.28
2023-02-14T08:17:10.323Z,102101.34
2023-02-14T08:20:13.458Z,102097.56
2023-02-14T08:23:17.915Z,102098.94
2023-02-14T08:26:20.294Z,102092.69
2023-02-14T08:29:22.327Z,102080.19
2023-02-14T08:32:24.444Z,102096.00
2023-02-14T08:35:26.563Z,102106.41
2023-02-14T08:38:29.215Z,102111.94
2023-02-14T08:41:31.757Z,102100.13
2023-02-14T08:44:33.736Z,102102.25
2023-02-14T08:47:36.837Z,102104.88
2023-02-14T08:50:39.854Z,102100.69
2023-02-14T08:53:42.889Z,102095.16
2023-02-14T08:56:45.063Z,102098.41
2023-02-14T08:59:47.402Z,102093.72
2023-02-14T09:02:53.196Z,102108.25
2023-02-14T09:06:02.816Z,102095.69
2023-02-14T09:09:06.470Z,102105.66
2023-02-14T09:12:10.319Z,102104.63
2023-02-14T09:15:12.787Z,102102.81
2023-02-14T09:18:16.310Z,102108.25
2023-02-14T09:21:21.506Z,102116.94
2023-02-14T09:24:23.556Z,102132.31
2023-02-14T09:27:25.642Z,102098.47
2023-02-14T09:30:27.871Z,102110.34
2023-02-14T09:33:30.047Z,102118.06
2023-02-14T09:36:51.139Z,102107.25
2023-02-14T09:39:53.274Z,102101.41
2023-02-14T09:43:01.831Z,102119.56
2023-02-14T09:46:07.641Z,102129.09
2023-02-14T09:49:15.512Z,102125.97
2023-02-14T09:52:20.023Z,102131.44
2023-02-14T09:55:22.597Z,102127.06
2023-02-14T09:58:40.025Z,102122.66
2023-02-14T10:02:32.876Z,102112.78
2023-02-14T10:05:43.990Z,102115.25
2023-02-14T10:09:13.619Z,102122.81
2023-02-14T10:12:24.694Z,102114.84
2023-02-14T10:15:32.177Z,102123.41
2023-02-14T10:18:56.159Z,102120.06
2023-02-14T10:22:03.303Z,102108.06
2023-02-14T10:25:29.733Z,102108.75
2023-02-14T10:28:43.090Z,102120.34
2023-02-14T10:31:56.015Z,102101.97
2023-02-14T10:35:01.129Z,102116.56
2023-02-14T10:38:19.960Z,102106.75
2023-02-14T10:42:06.821Z,102115.16
2023-02-14T10:45:29.288Z,102108.13
2023-02-14T10:48:59.809Z,102103.38
2023-02-14T10:52:15.068Z,102104.84
2023-02-14T10:55:32.975Z,102111.94
2023-02-14T10:58:38.358Z,102097.06
2023-02-14T11:01:40.887Z,102102.53
2023-02-14T11:04:44.457Z,102093.53
2023-02-14T11:07:46.441Z,102089.28
2023-02-14T11:10:48.847Z,102086.19
2023-02-14T11:13:50.973Z,102095.53
2023-02-14T11:16:54.615Z,102101.19
2023-02-14T11:20:02.113Z,102097.72
2023-02-14T11:23:19.172Z,102104.97
2023-02-14T11:26:25.768Z,102099.03
2023-02-14T11:29:31.021Z,102099.22
2023-02-14T11:32:37.664Z,102093.47
2023-02-14T11:35:39.814Z,102093.63
2023-02-14T11:38:44.438Z,102075.94
2023-02-14T11:41:56.392Z,102080.34
2023-02-14T11:44:59.737Z,102068.97
2023-02-14T11:48:36.651Z,102060.63
2023-02-14T11:51:45.589Z,102062.59
2023-02-14T11:54:49.661Z,102063.94
2023-02-14T11:57:52.070Z,102058.78
2023-02-14T12:00:54.496Z,102060.19
2023-02-14T12:04:01.675Z,102057.09
2023-02-14T12:07:16.688Z,102057.22
2023-02-14T12:10:25.053Z,102048.78
2023-02-14T12:13:27.094Z,102051.94
2023-02-14T12:16:38.857Z,102064.56
2023-02-14T12:19:54.755Z,102052.56
2023-02-14T12:23:03.890Z,102056.03
2023-02-14T12:26:43.324Z,102065.22
2023-02-14T12:29:48.761Z,102054.28
2023-02-14T12:32:56.521Z,102051.16
2023-02-14T12:36:09.215Z,102054.88
2023-02-14T12:39:20.994Z,102040.75
2023-02-14T12:42:35.201Z,102036.28
2023-02-14T12:45:55.767Z,102053.28
2023-02-14T12:49:00.588Z,102048.19
2023-02-14T12:52:20.647Z,102047.47
2023-02-14T12:55:36.908Z,102042.28
2023-02-14T12:58:59.240Z,102049.41
2023-02-14T13:02:16.511Z,102048.41
2023-02-14T13:05:53.598Z,102042.06
2023-02-14T13:09:14.474Z,102036.47
2023-02-14T13:12:35.099Z,102017.94
2023-02-14T13:15:55.053Z,102038.22
2023-02-14T13:19:05.725Z,102034.34
2023-02-14T13:22:13.674Z,102032.66
2023-02-14T13:25:33.646Z,102023.00
2023-02-14T13:28:39.384Z,102025.69
2023-02-14T13:31:42.297Z,102032.38
2023-02-14T13:34:47.760Z,102023.13
2023-02-14T13:37:56.226Z,102024.59
2023-02-14T13:41:01.117Z,102028.81
2023-02-14T13:44:05.558Z,102022.38
2023-02-14T13:47:16.186Z,102020.88
2023-02-14T13:50:21.747Z,102036.47
2023-02-14T13:53:38.056Z,102029.97
2023-02-14T13:56:40.472Z,102007.84
2023-02-14T13:59:43.219Z,102043.28
2023-02-14T14:03:05.543Z,102027.44
2023-02-14T14:06:12.977Z,102045.53
2023-02-14T14:09:43.349Z,102038.22
2023-02-14T14:12:46.105Z,102032.91
2023-02-14T14:16:21.778Z,102028.75
2023-02-14T14:19:26.909Z,102035.59
2023-02-14T14:22:32.016Z,102041.47
2023-02-14T14:25:41.494Z,102029.78
2023-02-14T14:28:47.864Z,102030.03
2023-02-14T14:31:55.783Z,102020.59
2023-02-14T14:35:08.478Z,102022.22
2023-02-14T14:38:14.465Z,102023.34
2023-02-14T14:41:17.186Z,102031.19
2023-02-14T14:44:19.364Z,102024.97
2023-02-14T14:47:26.978Z,102037.75
2023-02-14T14:50:33.070Z,102035.69
2023-02-14T14:53:44.657Z,102032.59
2023-02-14T14:57:01.675Z,102030.53
2023-02-14T15:00:28.541Z,102037.69
2023-02-14T15:03:31.265Z,102032.75
2023-02-14T15:06:33.261Z,102038.38
2023-02-14T15:09:36.805Z,102045.19
2023-02-14T15:12:57.640Z,102036.53
2023-02-14T15:16:01.847Z,102049.56
2023-02-14T15:19:19.056Z,102047.69
2023-02-14T15:22:23.988Z,102060.75
2023-02-14T15:25:27.761Z,102058.81
2023-02-14T15:28:32.247Z,102066.28
2023-02-14T15:31:40.826Z,102071.72
2023-02-14T15:34:43.013Z,102059.66
2023-02-14T15:37:46.940Z,102068.28
2023-02-14T15:40:49.371Z,102063.38
2023-02-14T15:43:54.031Z,102070.50
2023-02-14T15:47:05.759Z,102067.13
2023-02-14T15:50:31.422Z,102073.41
2023-02-14T15:53:58.484Z,102063.00
2023-02-14T15:57:01.457Z,102065.94
2023-02-14T16:00:17.081Z,102065.25
2023-02-14T16:03:22.720Z,102074.09
2023-02-14T16:06:45.051Z,102064.78
2023-02-14T16:09:48.171Z,102065.78
2023-02-14T16:13:20.542Z,102068.66
2023-02-14T16:16:22.708Z,102067.97
2023-02-14T16:19:37.268Z,102060.19
2023-02-14T16:22:39.290Z,102076.66
2023-02-14T16:25:42.001Z,102074.44
2023-02-14T16:28:44.032Z,102064.09
2023-02-14T16:32:14.117Z,102069.19
2023-02-14T16:35:21.259Z,102076.66
2023-02-14T16:38:23.693Z,102070.34
2023-02-14T16:41:27.956Z,102070.72
2023-02-14T16:44:29.988Z,102082.63
2023-02-14T16:47:32.059Z,102067.66
2023-02-14T16:50:36.555Z,102085.31
2023-02-14T16:53:41.151Z,102066.09
2023-02-14T16:56:53.633Z,102088.22
2023-02-14T16:59:56.579Z,102074.19
2023-02-14T17:03:08.671Z,102070.41
2023-02-14T17:06:15.859Z,102091.25
2023-02-14T17:09:24.384Z,102097.16
2023-02-14T17:12:35.338Z,102105.97
2023-02-14T17:15:39.032Z,102114.91
2023-02-14T17:18:43.548Z,102111.19
2023-02-14T17:21:45.639Z,102123.50
2023-02-14T17:24:47.840Z,102126.06
2023-02-14T17:27:49.860Z,102113.31
2023-02-14T17:30:51.812Z,102110.00
2023-02-14T17:33:53.958Z,102115.94
2023-02-14T17:36:55.964Z,102117.72
2023-02-14T17:40:01.280Z,102130.06
2023-02-14T17:43:03.457Z,102161.38
2023-02-14T17:46:05.834Z,102152.44
2023-02-14T17:49:09.729Z,102166.53
2023-02-14T17:52:11.764Z,102163.09
2023-02-14T17:55:15.917Z,102173.59
2023-02-14T17:58:17.935Z,102180.31
2023-02-14T18:01:22.639Z,102181.94
2023-02-14T18:04:25.682Z,102190.28
2023-02-14T18:07:27.709Z,102183.22
2023-02-14T18:10:29.800Z,102200.41
2023-02-14T18:13:32.231Z,102206.63
2023-02-14T18:16:37.053Z,102196.16
2023-02-14T18:19:39.098Z,102220.19
2023-02-14T18:22:41.112Z,102219.56
2023-02-14T18:25:49.983Z,102226.44
2023-02-14T18:28:52.121Z,102213.78
2023-02-14T18:31:54.222Z,102213.78
2023-02-14T18:34:56.333Z,102224.94
2023-02-14T18:37:58.544Z,102222.81
2023-02-14T18:41:05.364Z,102237.59
2023-02-14T18:44:10.623Z,102241.81
2023-02-14T18:47:12.526Z,102252.00
2023-02-14T18:50:14.577Z,102246.59
2023-02-14T18:53:17.890Z,102264.44
2023-02-14T18:56:24.298Z,102267.25
2023-02-14T18:59:26.300Z,102260.97
2023-02-14T19:02:28.428Z,102263.69
2023-02-14T19:05:30.528Z,102263.06
2023-02-14T19:08:38.457Z,102274.25
2023-02-14T19:11:40.909Z,102256.47
2023-02-14T19:14:43.122Z,102267.78
2023-02-14T19:17:45.630Z,102274.72
2023-02-14T19:20:48.402Z,102266.94
2023-02-14T19:23:53.035Z,102259.72
2023-02-14T19:26:56.953Z,102277.06
2023-02-14T19:29:59.096Z,102279.16
2023-02-14T19:33:01.291Z,102275.34
2023-02-14T19:36:05.723Z,102272.88
2023-02-14T19:39:10.202Z,102273.63
2023-02-14T19:42:14.084Z,102276.03
2023-02-14T19:45:19.053Z,102287.84
2023-02-14T19:48:21.028Z,102276.34
2023-02-14T19:51:26.617Z,102275.88
2023-02-14T19:54:30.156Z,102268.16
2023-02-14T19:57:32.162Z,102281.66
2023-02-14T20:00:37.132Z,102276.97
2023-02-14T20:03:39.282Z,102266.69
2023-02-14T20:06:43.952Z,102260.91
2023-02-14T20:09:46.114Z,102267.75
2023-02-14T20:12:48.397Z,102276.31
2023-02-14T20:15:51.708Z,102265.50
2023-02-14T20:18:54.450Z,102281.91
2023-02-14T20:21:56.625Z,102295.47
2023-02-14T20:25:00.743Z,102288.56
2023-02-14T20:28:02.777Z,102283.53
2023-02-14T20:31:13.260Z,102280.47
2023-02-14T20:34:17.200Z,102301.63
2023-02-14T20:37:22.667Z,102290.78
2023-02-14T20:40:28.091Z,102295.34
2023-02-14T20:43:31.487Z,102297.63
2023-02-14T20:46:34.799Z,102297.16
2023-02-14T20:49:39.288Z,102302.28
2023-02-14T20:52:41.385Z,102301.84
2023-02-14T20:55:47.137Z,102311.75
2023-02-14T20:58:49.963Z,102299.03
2023-02-14T21:01:52.074Z,102315.50
2023-02-14T21:04:54.174Z,102306.88
2023-02-14T21:07:56.487Z,102315.94
2023-02-14T21:11:00.515Z,102315.63
2023-02-14T21:14:03.136Z,102314.72
2023-02-14T21:17:05.144Z,102304.13
2023-02-14T21:20:07.883Z,102301.34
2023-02-14T21:23:10.515Z,102322.50
2023-02-14T21:26:12.568Z,102331.59
2023-02-14T21:29:14.760Z,102335.13
2023-02-14T21:32:16.971Z,102334.66
2023-02-14T21:35:19.175Z,102333.50
2023-02-14T21:38:21.699Z,102332.97
2023-02-14T21:41:26.736Z,102332.56
2023-02-14T21:44:47.580Z,102337.81
2023-02-14T21:48:11.108Z,102334.47
2023-02-14T21:51:13.940Z,102337.19
2023-02-14T21:54:16.640Z,102343.16
2023-02-14T21:57:21.040Z,102342.91
2023-02-14T22:00:23.132Z,102346.13
2023-02-14T22:03:25.315Z,102352.06
2023-02-14T22:06:31.377Z,102352.16
2023-02-14T22:09:34.233Z,102352.34
2023-02-14T22:12:36.404Z,102355.78
2023-02-14T22:15:41.354Z,102364.75
2023-02-14T22:18:43.652Z,102354.50
2023-02-14T22:25:12.118Z,102351.69
2023-02-14T22:28:14.174Z,102366.91
2023-02-14T22:31:18.659Z,102368.31
2023-02-14T22:34:20.837Z,102369.59
2023-02-14T22:37:22.964Z,102372.16
2023-02-14T22:40:25.129Z,102378.16
2023-02-14T22:43:27.451Z,102363.63
2023-02-14T22:46:29.491Z,102369.19
2023-02-14T22:49:31.546Z,102364.63
2023-02-14T22:52:34.994Z,102382.16
2023-02-14T22:55:37.030Z,102387.13
2023-02-14T22:58:39.480Z,102374.59
2023-02-14T23:01:42.829Z,102394.25
2023-02-14T23:04:44.904Z,102376.47
2023-02-14T23:07:47.123Z,102373.75
2023-02-14T23:10:49.437Z,102380.72
2023-02-14T23:14:10.077Z,102378.72
2023-02-14T23:17:18.812Z,102382.25
2023-02-14T23:20:39.850Z,102388.66
2023-02-14T23:23:41.935Z,102381.81
2023-02-14T23:26:44.244Z,102387.78
2023-02-14T23:29:46.458Z,102378.09
2023-02-14T23:32:48.462Z,102394.31
2023-02-14T23:35:50.440Z,102396.31
2023-02-14T23:38:52.550Z,102401.44
2023-02-14T23:41:55.384Z,102395.75
2023-02-14T23:45:17.421Z,102388.63
2023-02-14T23:48:19.475Z,102383.78
2023-02-14T23:51:21.471Z,102389.63
2023-02-14T23:54:24.207Z,102394.59
2023-02-14T23:57:26.290Z,102388.06
